Hlavní strana
METAR-TAF:

METAR-TAF

Letiště :

San Juan de los Morros, Venezuela

zeměpisná šířka: 09-55N, zeměpisná délka: 067-20W, výška: 429 m

Aktuální stav počasí

Zpráva byla vytvořena před 31 minutami, v 01:02 UTC
Jihozápadní vítr 6 kt
Teplota 28°C
Vlhkost vzduchu 48%
Tlak 1011 hPa

METAR: SVJM 260102Z AUTO 22006KT NCD 28/16 Q1011

Čas: 21:33 (01:33 UTC)


TAF: chybějící

Stav a předpovědi počasí z více než 4 000 letišť (zprávy METAR a TAF).

Červené a žluté tečky na mapě představují dostupné meteorologické stanice.

Když kurzor umístíte na tečku, zobrazí se název stanice.

Pak kliknutím zobrazíte stav a předpověď počasí.

Chcete-li změnit mapu, kliknutím na zelené tlačítko se znaménkem +mapu přiblížíte, kliknutím na zelené tlačítko se znaménkem – mapu oddálíte a kliknutím na zelené šipky přejdete na sousední mapy.


METAR-TAF: